createdAt,value
2019-03-09T00:02:16.661Z,2.55
2019-03-09T00:04:44.926Z,2.20
2019-03-09T00:07:13.158Z,2.35
2019-03-09T00:09:41.887Z,1.82
2019-03-09T00:12:10.126Z,2.58
2019-03-09T00:14:38.367Z,2.40
2019-03-09T00:17:06.639Z,1.82
2019-03-09T00:19:34.888Z,2.15
2019-03-09T00:22:03.145Z,2.20
2019-03-09T00:24:33.211Z,2.70
2019-03-09T00:27:05.930Z,2.75
2019-03-09T00:29:38.464Z,2.72
2019-03-09T00:32:08.401Z,2.58
2019-03-09T00:34:37.008Z,2.17
2019-03-09T00:37:05.245Z,2.52
2019-03-09T00:39:33.522Z,2.37
2019-03-09T00:42:01.765Z,2.55
2019-03-09T00:44:30.551Z,2.58
2019-03-09T00:46:58.814Z,2.60
2019-03-09T00:49:27.234Z,2.95
2019-03-09T00:51:55.507Z,3.33
2019-03-09T00:54:23.729Z,2.90
2019-03-09T00:56:51.954Z,3.10
2019-03-09T00:59:20.202Z,2.92
2019-03-09T01:01:48.422Z,3.75
2019-03-09T01:04:16.652Z,4.17
2019-03-09T01:06:44.917Z,3.83
2019-03-09T01:09:13.135Z,3.55
2019-03-09T01:11:41.376Z,4.03
2019-03-09T01:14:09.591Z,4.35
2019-03-09T01:16:37.826Z,3.98
2019-03-09T01:19:06.063Z,5.85
2019-03-09T01:21:34.302Z,4.60
2019-03-09T01:24:02.652Z,4.55
2019-03-09T01:26:30.888Z,5.42
2019-03-09T01:28:59.142Z,4.65
2019-03-09T01:31:27.420Z,5.28
2019-03-09T01:33:55.639Z,5.70
2019-03-09T01:36:23.906Z,6.00
2019-03-09T01:38:52.131Z,5.72
2019-03-09T01:41:20.367Z,5.53
2019-03-09T01:43:48.657Z,5.65
2019-03-09T01:46:16.893Z,4.25
2019-03-09T01:48:45.169Z,5.50
2019-03-09T01:51:13.400Z,6.05
2019-03-09T01:53:41.627Z,5.80
2019-03-09T01:56:09.871Z,6.00
2019-03-09T01:58:38.142Z,6.20
2019-03-09T02:01:06.359Z,6.95
2019-03-09T02:03:35.142Z,5.84
2019-03-09T02:06:03.364Z,6.40
2019-03-09T02:08:31.606Z,6.70
2019-03-09T02:10:59.908Z,6.65
2019-03-09T02:13:28.211Z,6.15
2019-03-09T02:15:56.454Z,6.12
2019-03-09T02:18:24.688Z,6.12
2019-03-09T02:20:52.904Z,6.33
2019-03-09T02:23:21.130Z,6.65
2019-03-09T02:25:49.363Z,6.67
2019-03-09T02:28:17.622Z,7.17
2019-03-09T02:30:45.835Z,7.15
2019-03-09T02:33:14.078Z,6.57
2019-03-09T02:35:42.337Z,7.08
2019-03-09T02:38:12.245Z,6.65
2019-03-09T02:40:40.465Z,6.93
2019-03-09T02:43:08.722Z,6.83
2019-03-09T02:45:37.699Z,7.37
2019-03-09T02:48:05.927Z,6.60
2019-03-09T02:50:34.146Z,7.53
2019-03-09T02:53:02.377Z,8.33
2019-03-09T02:55:30.660Z,7.47
2019-03-09T02:57:58.894Z,7.47
2019-03-09T03:00:28.764Z,7.80
2019-03-09T03:02:58.626Z,6.37
2019-03-09T03:05:26.853Z,6.97
2019-03-09T03:07:55.099Z,6.20
2019-03-09T03:10:23.346Z,5.78
2019-03-09T03:12:51.558Z,6.30
2019-03-09T03:15:30.344Z,6.70
2019-03-09T03:17:58.576Z,7.03
2019-03-09T03:20:26.809Z,7.22
2019-03-09T03:22:55.027Z,6.55
2019-03-09T03:25:23.270Z,6.28
2019-03-09T03:27:51.528Z,6.42
2019-03-09T03:30:19.777Z,6.25
2019-03-09T03:32:47.992Z,6.73
2019-03-09T03:35:16.251Z,5.95
2019-03-09T03:37:44.540Z,6.28
2019-03-09T03:40:12.838Z,6.10
2019-03-09T03:42:41.305Z,6.42
2019-03-09T03:45:11.472Z,6.60
2019-03-09T03:47:39.690Z,6.17
2019-03-09T03:50:07.936Z,6.05
2019-03-09T03:52:36.160Z,5.47
2019-03-09T03:55:06.286Z,6.40
2019-03-09T03:57:34.560Z,5.90
2019-03-09T04:00:03.085Z,5.80
2019-03-09T04:02:31.300Z,6.30
2019-03-09T04:04:59.530Z,6.03
2019-03-09T04:07:27.753Z,6.75
2019-03-09T04:09:55.959Z,6.03
2019-03-09T04:12:24.216Z,6.45
2019-03-09T04:14:52.421Z,6.87
2019-03-09T04:17:20.679Z,6.55
2019-03-09T04:19:48.906Z,6.72
2019-03-09T04:22:17.158Z,6.35
2019-03-09T04:24:45.388Z,7.03
2019-03-09T04:27:14.078Z,7.92
2019-03-09T04:29:42.332Z,6.75
2019-03-09T04:32:10.561Z,6.55
2019-03-09T04:34:38.785Z,6.83
2019-03-09T04:37:07.039Z,6.58
2019-03-09T04:39:35.258Z,6.78
2019-03-09T04:42:03.502Z,7.47
2019-03-09T04:44:31.755Z,6.58
2019-03-09T04:46:59.964Z,6.37
2019-03-09T04:49:28.200Z,7.20
2019-03-09T04:51:56.423Z,7.70
2019-03-09T04:54:24.695Z,7.90
2019-03-09T04:56:52.952Z,7.30
2019-03-09T04:59:21.162Z,7.95
2019-03-09T05:01:49.409Z,8.48
2019-03-09T05:04:26.044Z,8.60
2019-03-09T05:06:54.291Z,10.03
2019-03-09T05:09:49.627Z,9.50
2019-03-09T05:12:17.853Z,10.28
2019-03-09T05:14:47.014Z,10.25
2019-03-09T05:17:15.274Z,11.45
2019-03-09T05:19:43.519Z,11.78
2019-03-09T05:22:11.815Z,12.43
2019-03-09T05:24:40.048Z,14.47
2019-03-09T05:27:08.287Z,13.18
2019-03-09T05:29:36.518Z,14.28
2019-03-09T05:32:04.789Z,13.58
2019-03-09T05:34:33.101Z,14.18
2019-03-09T05:37:01.405Z,14.87
2019-03-09T05:39:29.651Z,15.08
2019-03-09T05:41:57.883Z,14.50
2019-03-09T05:44:26.130Z,15.98
2019-03-09T05:46:54.393Z,15.75
2019-03-09T05:49:22.657Z,16.97
2019-03-09T05:52:19.839Z,16.23
2019-03-09T05:54:48.103Z,17.23
2019-03-09T05:57:16.324Z,18.15
2019-03-09T05:59:44.569Z,18.30
2019-03-09T06:02:12.805Z,19.92
2019-03-09T06:04:41.038Z,19.10
2019-03-09T06:07:09.304Z,20.08
2019-03-09T06:09:37.565Z,20.65
2019-03-09T06:12:05.825Z,21.00
2019-03-09T06:14:34.068Z,22.90
2019-03-09T06:17:02.325Z,22.85
2019-03-09T06:19:30.577Z,23.30
2019-03-09T06:21:58.810Z,23.18
2019-03-09T06:24:27.064Z,22.43
2019-03-09T06:26:55.315Z,21.93
2019-03-09T06:29:23.553Z,20.65
2019-03-09T06:32:17.389Z,20.48
2019-03-09T06:34:45.633Z,18.82
2019-03-09T06:37:13.958Z,17.67
2019-03-09T06:39:42.240Z,17.90
2019-03-09T06:42:16.389Z,17.52
2019-03-09T06:44:44.645Z,17.10
2019-03-09T06:47:12.883Z,16.85
2019-03-09T06:49:41.160Z,16.12
2019-03-09T06:52:09.394Z,16.50
2019-03-09T06:54:37.643Z,15.45
2019-03-09T06:57:13.629Z,16.10
2019-03-09T06:59:35.882Z,14.60
2019-03-09T07:02:04.139Z,15.48
2019-03-09T07:04:32.379Z,15.00
2019-03-09T07:07:00.607Z,13.98
2019-03-09T07:09:28.870Z,14.13
2019-03-09T07:11:57.143Z,14.30
2019-03-09T07:14:47.852Z,15.10
2019-03-09T07:17:19.087Z,13.40
2019-03-09T07:22:14.948Z,14.50
2019-03-09T07:24:43.222Z,14.05
2019-03-09T07:27:11.452Z,15.30
2019-03-09T07:29:39.693Z,14.80
2019-03-09T07:32:07.943Z,14.40
2019-03-09T07:34:36.194Z,14.67
2019-03-09T07:37:04.414Z,13.98
2019-03-09T07:39:32.697Z,14.30
2019-03-09T07:42:00.950Z,13.80
2019-03-09T07:44:29.194Z,12.75
2019-03-09T07:46:57.434Z,13.43
2019-03-09T07:49:26.605Z,12.78
2019-03-09T07:51:54.851Z,12.55
2019-03-09T07:54:23.092Z,12.07
2019-03-09T07:56:51.346Z,10.90
2019-03-09T07:59:19.596Z,10.88
2019-03-09T08:01:47.840Z,11.00
2019-03-09T08:04:16.085Z,10.32
2019-03-09T08:06:44.310Z,10.75
2019-03-09T08:09:12.536Z,9.08
2019-03-09T08:11:40.758Z,8.88
2019-03-09T08:14:09.059Z,8.95
2019-03-09T08:16:37.293Z,8.78
2019-03-09T08:19:05.571Z,8.45
2019-03-09T08:21:33.814Z,7.95
2019-03-09T08:24:02.048Z,8.08
2019-03-09T08:26:30.298Z,7.97
2019-03-09T08:28:59.065Z,7.50
2019-03-09T08:31:27.307Z,7.00
2019-03-09T08:33:55.549Z,8.18
2019-03-09T08:36:23.771Z,6.67
2019-03-09T08:38:52.018Z,7.42
2019-03-09T08:41:20.299Z,6.97
2019-03-09T08:43:48.633Z,6.95
2019-03-09T08:46:16.871Z,6.40
2019-03-09T08:48:45.131Z,7.10
2019-03-09T08:51:13.438Z,6.47
2019-03-09T08:53:41.750Z,6.78
2019-03-09T08:56:09.977Z,6.37
2019-03-09T08:58:38.214Z,6.10
2019-03-09T09:01:06.477Z,6.12
2019-03-09T09:03:34.744Z,6.45
2019-03-09T09:06:03.001Z,6.42
2019-03-09T09:08:31.374Z,5.05
2019-03-09T09:10:59.659Z,5.22
2019-03-09T09:13:27.911Z,5.30
2019-03-09T09:15:56.144Z,5.50
2019-03-09T09:18:24.405Z,5.50
2019-03-09T09:20:52.634Z,4.67
2019-03-09T09:23:20.888Z,5.75
2019-03-09T09:25:49.103Z,4.70
2019-03-09T09:28:17.373Z,5.30
2019-03-09T09:30:45.611Z,4.87
2019-03-09T09:33:13.859Z,5.37
2019-03-09T09:35:42.088Z,5.05
2019-03-09T09:38:10.334Z,5.53
2019-03-09T09:40:38.574Z,4.58
2019-03-09T09:43:06.817Z,4.65
2019-03-09T09:45:35.041Z,4.37
2019-03-09T09:48:03.798Z,5.00
2019-03-09T09:50:32.039Z,4.72
2019-03-09T09:53:00.275Z,5.80
2019-03-09T09:55:28.562Z,4.47
2019-03-09T09:57:56.811Z,4.75
2019-03-09T10:00:28.261Z,4.47
2019-03-09T10:05:24.712Z,4.28
2019-03-09T10:07:53.134Z,3.85
2019-03-09T10:10:22.407Z,3.95
2019-03-09T10:12:50.637Z,3.95
2019-03-09T10:15:23.846Z,4.90
2019-03-09T10:17:52.097Z,3.33
2019-03-09T10:20:20.386Z,4.00
2019-03-09T10:22:48.678Z,3.62
2019-03-09T10:25:16.913Z,3.92
2019-03-09T10:27:45.147Z,3.87
2019-03-09T10:30:22.603Z,3.72
2019-03-09T10:32:50.850Z,3.25
2019-03-09T10:35:19.097Z,3.65
2019-03-09T10:37:48.340Z,3.70
2019-03-09T10:40:16.653Z,3.75
2019-03-09T10:42:44.967Z,3.37
2019-03-09T10:45:18.128Z,3.40
2019-03-09T10:47:46.367Z,3.58
2019-03-09T10:50:18.245Z,3.00
2019-03-09T10:52:46.526Z,3.52
2019-03-09T10:55:17.152Z,3.22
2019-03-09T10:57:45.397Z,3.30
2019-03-09T11:00:19.030Z,3.30
2019-03-09T11:02:47.272Z,2.87
2019-03-09T11:05:15.523Z,3.10
2019-03-09T11:07:43.769Z,2.60
2019-03-09T11:10:12.020Z,3.25
2019-03-09T11:12:40.411Z,2.80
2019-03-09T11:15:09.227Z,3.30
2019-03-09T11:17:37.458Z,2.65
2019-03-09T11:20:09.388Z,2.80
2019-03-09T11:22:37.607Z,2.65
2019-03-09T11:25:06.167Z,3.92
2019-03-09T11:27:34.463Z,2.67
2019-03-09T11:30:03.166Z,3.55
2019-03-09T11:32:31.431Z,3.35
2019-03-09T11:34:59.730Z,3.55
2019-03-09T11:37:27.955Z,3.42
2019-03-09T11:39:56.231Z,3.22
2019-03-09T11:42:24.487Z,3.30
2019-03-09T11:44:52.723Z,2.77
2019-03-09T11:47:20.971Z,2.77
2019-03-09T11:49:49.206Z,2.90
2019-03-09T11:52:20.504Z,2.90
2019-03-09T11:54:47.440Z,2.35
2019-03-09T11:57:16.002Z,2.52
2019-03-09T11:59:44.376Z,2.60
2019-03-09T12:02:12.627Z,2.05
2019-03-09T12:04:46.631Z,2.05
2019-03-09T12:07:10.835Z,2.30
2019-03-09T12:09:39.056Z,2.00
2019-03-09T12:12:07.278Z,2.27
2019-03-09T12:14:35.603Z,2.52
2019-03-09T12:17:03.862Z,2.37
2019-03-09T12:19:32.131Z,1.80
2019-03-09T12:22:00.370Z,2.33
2019-03-09T12:24:28.602Z,2.52
2019-03-09T12:26:56.832Z,2.17
2019-03-09T12:29:25.095Z,2.12
2019-03-09T12:31:53.334Z,2.00
2019-03-09T12:34:21.579Z,2.77
2019-03-09T12:36:49.826Z,2.35
2019-03-09T12:39:18.057Z,2.50
2019-03-09T12:41:46.303Z,2.37
2019-03-09T12:44:14.914Z,2.20
2019-03-09T12:46:43.149Z,3.10
2019-03-09T12:49:11.423Z,2.77
2019-03-09T12:51:39.754Z,3.22
2019-03-09T12:54:08.009Z,3.15
2019-03-09T12:56:36.324Z,3.77
2019-03-09T12:59:04.604Z,3.95
2019-03-09T13:01:32.834Z,3.75
2019-03-09T13:04:01.064Z,3.90
2019-03-09T13:06:29.300Z,3.77
2019-03-09T13:08:57.540Z,4.03
2019-03-09T13:11:25.777Z,4.58
2019-03-09T13:13:54.048Z,3.77
2019-03-09T13:16:22.317Z,4.55
2019-03-09T13:18:50.573Z,4.30
2019-03-09T13:21:18.879Z,4.37
2019-03-09T13:23:47.306Z,4.55
2019-03-09T13:26:15.531Z,5.92
2019-03-09T13:28:43.767Z,4.25
2019-03-09T13:31:12.039Z,4.65
2019-03-09T13:33:40.291Z,5.33
2019-03-09T13:36:08.545Z,5.83
2019-03-09T13:38:36.766Z,5.17
2019-03-09T13:41:05.024Z,5.55
2019-03-09T13:43:33.296Z,5.53
2019-03-09T13:46:01.555Z,5.12
2019-03-09T13:48:29.794Z,5.45
2019-03-09T13:50:58.039Z,6.47
2019-03-09T13:53:26.295Z,5.05
2019-03-09T13:55:54.504Z,5.83
2019-03-09T13:58:22.784Z,4.95
2019-03-09T14:00:51.041Z,5.30
2019-03-09T14:03:19.283Z,5.53
2019-03-09T14:05:47.593Z,5.17
2019-03-09T14:08:15.850Z,5.45
2019-03-09T14:10:44.102Z,5.15
2019-03-09T14:13:12.327Z,5.95
2019-03-09T14:15:40.560Z,6.10
2019-03-09T14:18:08.821Z,5.15
2019-03-09T14:20:37.061Z,6.20
2019-03-09T14:23:05.332Z,5.87
2019-03-09T14:25:33.584Z,5.50
2019-03-09T14:28:01.837Z,5.15
2019-03-09T14:30:30.074Z,5.08
2019-03-09T14:32:58.329Z,5.75
2019-03-09T14:35:26.564Z,4.87
2019-03-09T14:37:54.814Z,4.53
2019-03-09T14:40:23.045Z,5.12
2019-03-09T14:42:51.314Z,4.80
2019-03-09T14:45:21.117Z,5.15
2019-03-09T14:47:49.877Z,6.33
2019-03-09T14:50:18.116Z,5.42
2019-03-09T14:52:46.355Z,4.97
2019-03-09T14:55:14.638Z,5.58
2019-03-09T14:57:42.956Z,5.58
2019-03-09T15:00:14.477Z,4.40
2019-03-09T15:02:42.737Z,4.83
2019-03-09T15:05:10.986Z,5.53
2019-03-09T15:07:39.211Z,6.60
2019-03-09T15:10:09.535Z,4.28
2019-03-09T15:12:37.775Z,5.63
2019-03-09T15:15:09.390Z,5.22
2019-03-09T15:17:37.634Z,6.03
2019-03-09T15:20:09.005Z,5.20
2019-03-09T15:22:37.249Z,5.30
2019-03-09T15:25:13.651Z,5.17
2019-03-09T15:28:01.414Z,5.87
2019-03-09T15:30:29.694Z,4.42
2019-03-09T15:32:57.972Z,5.62
2019-03-09T15:35:26.391Z,4.40
2019-03-09T15:37:54.642Z,4.83
2019-03-09T15:40:22.928Z,4.80
2019-03-09T15:42:51.196Z,3.87
2019-03-09T15:45:19.984Z,4.55
2019-03-09T15:47:48.213Z,3.87
2019-03-09T15:50:20.286Z,4.25
2019-03-09T15:52:48.515Z,3.58
2019-03-09T15:55:16.865Z,2.80
2019-03-09T15:57:45.174Z,3.22
2019-03-09T16:00:23.504Z,3.08
2019-03-09T16:02:51.790Z,3.95
2019-03-09T16:05:20.022Z,4.25
2019-03-09T16:07:48.242Z,4.12
2019-03-09T16:10:21.549Z,3.37
2019-03-09T16:12:50.146Z,4.62
2019-03-09T16:15:18.950Z,4.28
2019-03-09T16:17:47.646Z,4.30
2019-03-09T16:20:21.754Z,3.70
2019-03-09T16:22:50.040Z,2.50
2019-03-09T16:25:18.285Z,1.70
2019-03-09T16:27:46.510Z,1.70
2019-03-09T16:30:18.471Z,2.15
2019-03-09T16:32:47.327Z,2.10
2019-03-09T16:35:16.034Z,1.65
2019-03-09T16:37:45.302Z,1.87
2019-03-09T16:40:19.405Z,1.72
2019-03-09T16:42:47.992Z,1.65
2019-03-09T16:45:16.470Z,2.10
2019-03-09T16:47:44.879Z,2.08
2019-03-09T16:50:15.522Z,2.30
2019-03-09T16:52:43.803Z,1.98
2019-03-09T16:55:12.098Z,2.17
2019-03-09T16:57:40.353Z,1.77
2019-03-09T17:00:24.600Z,1.90
2019-03-09T17:02:52.810Z,2.22
2019-03-09T17:05:21.090Z,2.55
2019-03-09T17:07:49.365Z,1.87
2019-03-09T17:10:18.910Z,1.92
2019-03-09T17:12:47.654Z,2.47
2019-03-09T17:15:20.971Z,2.92
2019-03-09T17:17:49.229Z,2.62
2019-03-09T17:20:17.723Z,2.35
2019-03-09T17:22:45.975Z,2.35
2019-03-09T17:25:14.393Z,2.70
2019-03-09T17:27:42.667Z,2.98
2019-03-09T17:30:14.210Z,2.12
2019-03-09T17:32:42.476Z,2.08
2019-03-09T17:35:10.734Z,2.20
2019-03-09T17:37:39.060Z,2.60
2019-03-09T17:40:09.380Z,2.33
2019-03-09T17:42:37.664Z,2.97
2019-03-09T17:45:09.009Z,3.13
2019-03-09T17:47:37.292Z,2.50
2019-03-09T17:50:08.848Z,2.45
2019-03-09T17:52:37.111Z,2.70
2019-03-09T17:55:07.864Z,2.40
2019-03-09T17:57:36.136Z,2.63
2019-03-09T18:00:13.356Z,2.70
2019-03-09T18:02:41.598Z,2.17
2019-03-09T18:05:09.808Z,2.95
2019-03-09T18:07:39.696Z,2.45
2019-03-09T18:10:11.340Z,2.60
2019-03-09T18:12:40.555Z,3.37
2019-03-09T18:15:09.699Z,2.22
2019-03-09T18:17:37.954Z,3.15
2019-03-09T18:20:09.134Z,2.20
2019-03-09T18:22:37.449Z,2.50
2019-03-09T18:25:06.515Z,2.42
2019-03-09T18:27:34.772Z,3.22
2019-03-09T18:30:03.073Z,2.80
2019-03-09T18:32:31.319Z,1.92
2019-03-09T18:34:59.574Z,3.00
2019-03-09T18:37:27.840Z,2.42
2019-03-09T18:39:56.050Z,2.77
2019-03-09T18:42:24.301Z,2.27
2019-03-09T18:44:53.438Z,2.42
2019-03-09T18:47:21.666Z,3.02
2019-03-09T18:49:49.913Z,2.72
2019-03-09T18:52:18.167Z,3.12
2019-03-09T18:54:46.386Z,2.98
2019-03-09T18:57:14.625Z,2.92
2019-03-09T18:59:42.876Z,2.30
2019-03-09T19:02:11.096Z,2.75
2019-03-09T19:04:39.361Z,2.90
2019-03-09T19:07:07.604Z,3.33
2019-03-09T19:09:35.844Z,2.87
2019-03-09T19:12:04.102Z,3.52
2019-03-09T19:14:32.399Z,3.00
2019-03-09T19:17:00.600Z,3.33
2019-03-09T19:19:28.863Z,2.80
2019-03-09T19:21:57.116Z,4.30
2019-03-09T19:24:25.382Z,3.77
2019-03-09T19:26:53.986Z,2.98
2019-03-09T19:29:22.239Z,3.37
2019-03-09T19:31:50.467Z,3.45
2019-03-09T19:34:18.788Z,3.50
2019-03-09T19:36:47.056Z,2.77
2019-03-09T19:39:15.319Z,2.75
2019-03-09T19:41:43.575Z,3.33
2019-03-09T19:44:11.809Z,2.92
2019-03-09T19:46:40.054Z,3.58
2019-03-09T19:49:08.340Z,3.25
2019-03-09T19:51:36.592Z,3.70
2019-03-09T19:54:04.860Z,3.30
2019-03-09T19:56:33.083Z,2.60
2019-03-09T19:59:01.336Z,3.00
2019-03-09T20:01:29.739Z,3.12
2019-03-09T20:03:58.185Z,3.10
2019-03-09T20:06:26.422Z,3.17
2019-03-09T20:08:54.668Z,3.20
2019-03-09T20:11:22.939Z,2.95
2019-03-09T20:13:51.188Z,2.42
2019-03-09T20:16:19.456Z,2.90
2019-03-09T20:18:47.686Z,2.60
2019-03-09T20:21:15.931Z,2.65
2019-03-09T20:23:44.205Z,2.70
2019-03-09T20:26:12.447Z,2.75
2019-03-09T20:28:40.690Z,2.50
2019-03-09T20:31:09.024Z,2.40
2019-03-09T20:33:37.291Z,2.55
2019-03-09T20:36:05.564Z,2.62
2019-03-09T20:38:33.825Z,2.33
2019-03-09T20:41:02.066Z,2.27
2019-03-09T20:43:30.304Z,2.90
2019-03-09T20:45:58.571Z,1.70
2019-03-09T20:48:26.791Z,2.25
2019-03-09T20:50:55.115Z,2.40
2019-03-09T20:53:23.363Z,2.15
2019-03-09T20:55:51.595Z,2.02
2019-03-09T20:58:19.828Z,2.52
2019-03-09T21:00:48.082Z,2.17
2019-03-09T21:03:16.340Z,2.47
2019-03-09T21:05:44.554Z,2.30
2019-03-09T21:08:12.806Z,2.30
2019-03-09T21:10:41.081Z,2.37
2019-03-09T21:13:11.176Z,2.10
2019-03-09T21:15:39.436Z,2.20
2019-03-09T21:18:07.757Z,2.10
2019-03-09T21:20:36.030Z,2.20
2019-03-09T21:23:04.267Z,2.45
2019-03-09T21:25:32.510Z,2.15
2019-03-09T21:28:00.733Z,2.08
2019-03-09T21:30:28.989Z,2.58
2019-03-09T21:32:57.258Z,2.65
2019-03-09T21:35:25.564Z,2.70
2019-03-09T21:37:53.873Z,2.45
2019-03-09T21:40:22.142Z,2.30
2019-03-09T21:42:50.406Z,2.72
2019-03-09T21:45:18.646Z,2.98
2019-03-09T21:47:46.901Z,3.47
2019-03-09T21:50:16.255Z,3.45
2019-03-09T21:52:44.529Z,2.85
2019-03-09T21:55:17.249Z,2.92
2019-03-09T21:57:45.475Z,2.90
2019-03-09T22:00:15.253Z,3.05
2019-03-09T22:02:43.509Z,4.47
2019-03-09T22:05:12.495Z,3.40
2019-03-09T22:07:41.586Z,3.35
2019-03-09T22:10:10.995Z,3.30
2019-03-09T22:12:39.245Z,2.87
2019-03-09T22:15:16.661Z,2.80
2019-03-09T22:17:44.903Z,3.45
2019-03-09T22:20:13.806Z,3.50
2019-03-09T22:22:42.110Z,3.70
2019-03-09T22:25:11.422Z,3.55
2019-03-09T22:27:39.818Z,3.42
2019-03-09T22:30:11.032Z,4.72
2019-03-09T22:32:39.269Z,3.02
2019-03-09T22:35:10.799Z,3.75
2019-03-09T22:37:39.059Z,3.65
2019-03-09T22:40:10.397Z,4.05
2019-03-09T22:45:09.227Z,3.98
2019-03-09T22:50:08.340Z,4.25
2019-03-09T22:52:36.566Z,3.90
2019-03-09T22:55:05.393Z,3.60
2019-03-09T22:57:33.651Z,3.95
2019-03-09T23:00:01.899Z,4.08
2019-03-09T23:02:30.133Z,4.72
2019-03-09T23:04:58.345Z,4.28
2019-03-09T23:07:26.579Z,5.87
2019-03-09T23:09:54.842Z,4.92
2019-03-09T23:12:23.186Z,5.53
2019-03-09T23:14:51.551Z,4.80
2019-03-09T23:17:19.820Z,5.15
2019-03-09T23:19:48.057Z,5.90
2019-03-09T23:22:16.291Z,4.60
2019-03-09T23:24:44.520Z,6.03
2019-03-09T23:27:12.773Z,5.97
2019-03-09T23:29:41.044Z,6.20
2019-03-09T23:32:09.303Z,6.05
2019-03-09T23:34:37.544Z,6.08
2019-03-09T23:37:05.786Z,6.28
2019-03-09T23:39:34.055Z,5.10
2019-03-09T23:42:02.313Z,6.20
2019-03-09T23:44:30.561Z,6.30
2019-03-09T23:46:58.798Z,5.97
2019-03-09T23:49:27.350Z,5.94
2019-03-09T23:51:55.594Z,5.33
2019-03-09T23:54:23.846Z,6.10
2019-03-09T23:56:52.089Z,6.12
2019-03-09T23:59:20.353Z,6.10
